Terminal Aerodrome Forecast
Issued by NWS

Home | Current Version | Previous Version | Text Only | Print | Product List | Glossary On
Versions: 1 2 3 4 5 6 7 8 9 10 11 12 13 14 15 16 17 18 19 20 21 22 23 24 25 26 27 28 29 30 31
000
FTUS44 KLIX 160500
TAFHUM
TAF
KHUM 160526Z 1606/1706 00000KT P6SM SKC
     FM161000 00000KT 3SM BR SCT100
     FM161330 VRB03KT P6SM BKN035
     FM161900 03005KT 3SM SHRA BKN025
      TEMPO 1619/1623 VRB15KT 1SM TSRA BR BKN025CB
     FM170000 VRB03KT P6SM BKN035=

USA.gov is the U.S. government's official web portal to all federal, state and local government web resources and services.